ADDS METAR Data INFO
IDs: Format: Raw Decoded Include TAF

Data at: 0100 UTC 21 Oct 2017

KHVR 210053Z AUTO 26026G37KT 10SM OVC065 11/02 A2943 RMK AO2 PK WND 26037/0051 PRESRR SLP972 T01060017
KHVR 202353Z AUTO 26026G37KT 10SM OVC100 12/01 A2936 RMK AO2 PK WND 26037/2349 SLP947 T01220006 10156 20083 53028
KHVR 202253Z AUTO 23009KT 10SM OVC110 14/02 A2931 RMK AO2 SLP930 T01440017
KHVR 202153Z AUTO 29008KT 10SM CLR 16/02 A2928 RMK AO2 SLP918 T01560017
KHVR 202053Z AUTO 29013KT 10SM FEW120 15/01 A2927 RMK AO2 SLP913 T01500011 51019
KHVR 201953Z AUTO 29010KT 10SM CLR 12/M01 A2925 RMK AO2 SLP909 T01221006
KHVR 201853Z AUTO 27007KT 10SM CLR 12/01 A2923 RMK AO2 SLP900 T01170006
KHVR 201753Z AUTO 30003KT 10SM CLR 09/02 A2921 RMK AO2 SLP895 T00890022 10089 20033 56018
KHVR 201653Z AUTO 09008KT 10SM CLR 08/01 A2922 RMK AO2 SLP899 T00780011
KHVR 201553Z AUTO 09004KT 10SM CLR 07/01 A2925 RMK AO2 SLP909 T00670011
KHVR 201453Z AUTO 00000KT 10SM CLR 05/01 A2927 RMK AO2 SLP914 T00500006 56019
KHVR 201353Z AUTO 09006KT 10SM CLR 04/00 A2928 RMK AO2 SLP918 T00440000
KHVR 201253Z AUTO 06006KT 10SM CLR 04/M01 A2930 RMK AO2 SLP925 T00391006
KHVR 201153Z AUTO 09004KT 10SM CLR 03/00 A2933 RMK AO2 SLP930 T00280000 10078 20017 56016
KHVR 201053Z AUTO 13004KT 10SM CLR 02/M01 A2934 RMK AO2 SLP931 T00221011
KHVR 200953Z AUTO 00000KT 10SM CLR 04/M02 A2936 RMK AO2 SLP935 T00441017
KHVR 200853Z AUTO 30004KT 10SM CLR 04/M01 A2938 RMK AO2 SLP942 T00391011 58012
KHVR 200753Z AUTO 00000KT 10SM CLR 06/M01 A2940 RMK AO2 SLP946 T00561006
KHVR 200653Z AUTO 00000KT 10SM CLR 07/M02 A2941 RMK AO2 SLP950 T00671017 402560056
KHVR 200553Z AUTO 00000KT 10SM CLR 07/M02 A2942 RMK AO2 SLP954 T00671017 10194 20067 58009
KHVR 200453Z AUTO 22003KT 10SM CLR 07/M02 A2943 RMK AO2 SLP960 T00721017
KHVR 200353Z AUTO 00000KT 10SM CLR 09/M02 A2944 RMK AO2 SLP964 T00891017
KHVR 200253Z AUTO 08003KT 10SM CLR 12/M03 A2945 RMK AO2 SLP969 T01221033 56016
KHVR 200153Z AUTO 07005KT 10SM CLR 13/M03 A2946 RMK AO2 SLP972 T01331033
KHVR 200053Z AUTO 17008KT 10SM CLR 15/M03 A2948 RMK AO2 SLP978 T01501033
KHVR 192353Z AUTO 18010KT 10SM CLR 19/M03 A2950 RMK AO2 SLP979 T01891033 10256 20183 58013
KHVR 192253Z AUTO 22009KT 10SM CLR 23/M07 A2952 RMK AO2 PK WND 23029/2159 SLP981 T02331067
KHVR 192153Z AUTO 22020KT 10SM CLR 24/M08 A2953 RMK AO2 PK WND 22029/2139 SLP982 T02441078
KHVR 192053Z AUTO 22020G31KT 10SM CLR 24/M07 A2954 RMK AO2 PK WND 22031/2049 SLP987 T02441067 58018
KHVR 191953Z AUTO 22021G30KT 10SM CLR 25/M06 A2956 RMK AO2 PK WND 22033/1911 SLP994 T02501061
KHVR 191853Z AUTO 23023G31KT 10SM CLR 24/M06 A2958 RMK AO2 PK WND 23033/1842 SLP002 T02441061
KHVR 191753Z AUTO 23023G33KT 10SM CLR 23/M05 A2960 RMK AO2 PK WND 21034/1721 SLP009 T02331050 10233 20128 58000
KHVR 191653Z AUTO 22024G28KT 10SM CLR 22/M04 A2960 RMK AO2 PK WND 22031/1623 SLP013 T02171044
KHVR 191553Z AUTO 22018KT 10SM CLR 17/M02 A2961 RMK AO2 SLP019 T01721022
KHVR 191453Z AUTO 23013KT 10SM CLR 13/M02 A2960 RMK AO2 SLP020 T01281022 53007
KHVR 191353Z AUTO 23016KT 10SM CLR 14/M03 A2958 RMK AO2 SLP012 T01391033